sensor_id;sensor_type;location;lat;lon;timestamp;pressure;altitude;pressure_sealevel;temperature;humidity
81802;BME280;71199;52.490;5.448;2024-01-30T00:01:52;102657.53;;;6.04;100.00
81802;BME280;71199;52.490;5.448;2024-01-30T00:04:17;102657.06;;;5.98;100.00
81802;BME280;71199;52.490;5.448;2024-01-30T00:06:43;102649.44;;;5.89;100.00
81802;BME280;71199;52.490;5.448;2024-01-30T00:09:09;102662.81;;;5.79;100.00
81802;BME280;71199;52.490;5.448;2024-01-30T00:11:36;102660.06;;;5.79;100.00
81802;BME280;71199;52.490;5.448;2024-01-30T00:14:01;102665.41;;;5.80;100.00
81802;BME280;71199;52.490;5.448;2024-01-30T00:16:28;102659.94;;;5.80;100.00
81802;BME280;71199;52.490;5.448;2024-01-30T00:18:54;102658.38;;;5.91;100.00
81802;BME280;71199;52.490;5.448;2024-01-30T00:21:20;102655.28;;;5.97;100.00
81802;BME280;71199;52.490;5.448;2024-01-30T00:23:46;102661.34;;;6.02;100.00
81802;BME280;71199;52.490;5.448;2024-01-30T00:26:11;102658.31;;;5.92;100.00
81802;BME280;71199;52.490;5.448;2024-01-30T00:28:39;102660.47;;;6.01;100.00
81802;BME280;71199;52.490;5.448;2024-01-30T00:31:05;102655.28;;;5.97;100.00
81802;BME280;71199;52.490;5.448;2024-01-30T00:33:30;102655.09;;;5.85;100.00
81802;BME280;71199;52.490;5.448;2024-01-30T00:35:56;102658.13;;;5.81;100.00
81802;BME280;71199;52.490;5.448;2024-01-30T00:38:21;102641.16;;;5.76;100.00
81802;BME280;71199;52.490;5.448;2024-01-30T00:40:47;102646.91;;;5.85;100.00
81802;BME280;71199;52.490;5.448;2024-01-30T00:43:13;102638.25;;;5.93;100.00
81802;BME280;71199;52.490;5.448;2024-01-30T00:45:38;102643.97;;;5.89;100.00
81802;BME280;71199;52.490;5.448;2024-01-30T00:48:04;102643.69;;;5.93;100.00
81802;BME280;71199;52.490;5.448;2024-01-30T00:50:29;102646.03;;;5.85;100.00
81802;BME280;71199;52.490;5.448;2024-01-30T00:52:55;102644.75;;;5.76;100.00
81802;BME280;71199;52.490;5.448;2024-01-30T00:55:20;102639.13;;;5.79;100.00
81802;BME280;71199;52.490;5.448;2024-01-30T00:57:46;102636.94;;;5.84;100.00
81802;BME280;71199;52.490;5.448;2024-01-30T01:00:12;102635.69;;;5.90;100.00
81802;BME280;71199;52.490;5.448;2024-01-30T01:02:38;102627.91;;;5.84;100.00
81802;BME280;71199;52.490;5.448;2024-01-30T01:05:06;102639.97;;;5.94;100.00
81802;BME280;71199;52.490;5.448;2024-01-30T01:07:32;102639.09;;;5.94;100.00
81802;BME280;71199;52.490;5.448;2024-01-30T01:09:57;102635.00;;;5.86;100.00
81802;BME280;71199;52.490;5.448;2024-01-30T01:12:22;102630.06;;;5.93;100.00
81802;BME280;71199;52.490;5.448;2024-01-30T01:14:48;102627.72;;;6.01;100.00
81802;BME280;71199;52.490;5.448;2024-01-30T01:17:13;102629.84;;;6.11;100.00
81802;BME280;71199;52.490;5.448;2024-01-30T01:19:39;102632.75;;;6.22;100.00
81802;BME280;71199;52.490;5.448;2024-01-30T01:22:04;102625.13;;;6.27;100.00
81802;BME280;71199;52.490;5.448;2024-01-30T01:24:32;102626.91;;;6.28;100.00
81802;BME280;71199;52.490;5.448;2024-01-30T01:26:58;102634.19;;;6.28;100.00
81802;BME280;71199;52.490;5.448;2024-01-30T01:29:24;102618.28;;;6.34;100.00
81802;BME280;71199;52.490;5.448;2024-01-30T01:31:57;102620.44;;;6.29;100.00
81802;BME280;71199;52.490;5.448;2024-01-30T01:34:23;102615.28;;;6.24;100.00
81802;BME280;71199;52.490;5.448;2024-01-30T01:36:49;102618.47;;;6.31;100.00
81802;BME280;71199;52.490;5.448;2024-01-30T01:39:15;102620.53;;;6.28;100.00
81802;BME280;71199;52.490;5.448;2024-01-30T01:41:41;102620.34;;;6.31;100.00
81802;BME280;71199;52.490;5.448;2024-01-30T01:44:07;102632.13;;;6.31;100.00
81802;BME280;71199;52.490;5.448;2024-01-30T01:46:34;102631.47;;;6.28;100.00
81802;BME280;71199;52.490;5.448;2024-01-30T01:49:00;102634.13;;;6.15;100.00
81802;BME280;71199;52.490;5.448;2024-01-30T01:51:28;102636.69;;;6.03;100.00
81802;BME280;71199;52.490;5.448;2024-01-30T01:53:57;102638.16;;;5.95;100.00
81802;BME280;71199;52.490;5.448;2024-01-30T01:56:24;102634.91;;;5.88;100.00
81802;BME280;71199;52.490;5.448;2024-01-30T01:58:49;102631.22;;;5.89;100.00
81802;BME280;71199;52.490;5.448;2024-01-30T02:01:18;102629.88;;;5.96;100.00
81802;BME280;71199;52.490;5.448;2024-01-30T02:03:46;102631.34;;;6.02;100.00
81802;BME280;71199;52.490;5.448;2024-01-30T02:06:13;102632.56;;;6.11;100.00
81802;BME280;71199;52.490;5.448;2024-01-30T02:08:39;102621.84;;;6.22;100.00
81802;BME280;71199;52.490;5.448;2024-01-30T02:11:04;102618.91;;;6.25;100.00
81802;BME280;71199;52.490;5.448;2024-01-30T02:13:30;102624.63;;;6.35;100.00
81802;BME280;71199;52.490;5.448;2024-01-30T02:15:55;102618.06;;;6.37;100.00
81802;BME280;71199;52.490;5.448;2024-01-30T02:18:20;102611.06;;;6.33;100.00
81802;BME280;71199;52.490;5.448;2024-01-30T02:20:46;102608.25;;;6.35;100.00
81802;BME280;71199;52.490;5.448;2024-01-30T02:23:13;102602.47;;;6.39;100.00
81802;BME280;71199;52.490;5.448;2024-01-30T02:25:40;102601.69;;;6.37;100.00
81802;BME280;71199;52.490;5.448;2024-01-30T02:28:13;102595.56;;;6.34;100.00
81802;BME280;71199;52.490;5.448;2024-01-30T02:30:47;102592.81;;;6.34;100.00
81802;BME280;71199;52.490;5.448;2024-01-30T02:33:13;102577.75;;;6.28;100.00
81802;BME280;71199;52.490;5.448;2024-01-30T02:35:38;102581.25;;;6.30;100.00
81802;BME280;71199;52.490;5.448;2024-01-30T02:38:04;102572.94;;;6.32;100.00
81802;BME280;71199;52.490;5.448;2024-01-30T02:40:30;102570.53;;;6.27;100.00
81802;BME280;71199;52.490;5.448;2024-01-30T02:42:56;102566.16;;;6.24;100.00
81802;BME280;71199;52.490;5.448;2024-01-30T02:45:21;102580.66;;;6.25;100.00
81802;BME280;71199;52.490;5.448;2024-01-30T02:47:47;102562.44;;;6.25;100.00
81802;BME280;71199;52.490;5.448;2024-01-30T02:50:12;102572.28;;;6.28;100.00
81802;BME280;71199;52.490;5.448;2024-01-30T02:52:38;102579.13;;;6.21;100.00
81802;BME280;71199;52.490;5.448;2024-01-30T02:55:04;102575.03;;;6.28;100.00
81802;BME280;71199;52.490;5.448;2024-01-30T02:57:29;102596.66;;;6.31;100.00
81802;BME280;71199;52.490;5.448;2024-01-30T02:59:54;102588.50;;;6.17;100.00
81802;BME280;71199;52.490;5.448;2024-01-30T03:02:20;102572.47;;;6.25;100.00
81802;BME280;71199;52.490;5.448;2024-01-30T03:04:45;102546.28;;;6.22;100.00
81802;BME280;71199;52.490;5.448;2024-01-30T03:07:11;102553.47;;;6.23;100.00
81802;BME280;71199;52.490;5.448;2024-01-30T03:09:37;102555.59;;;6.33;100.00
81802;BME280;71199;52.490;5.448;2024-01-30T03:12:03;102555.13;;;6.26;100.00
81802;BME280;71199;52.490;5.448;2024-01-30T03:14:30;102547.22;;;6.21;100.00
81802;BME280;71199;52.490;5.448;2024-01-30T03:16:56;102549.19;;;6.19;100.00
81802;BME280;71199;52.490;5.448;2024-01-30T03:19:21;102546.72;;;6.29;100.00
81802;BME280;71199;52.490;5.448;2024-01-30T03:21:46;102540.50;;;6.27;100.00
81802;BME280;71199;52.490;5.448;2024-01-30T03:24:12;102551.00;;;6.33;100.00
81802;BME280;71199;52.490;5.448;2024-01-30T03:26:37;102548.63;;;6.41;100.00
81802;BME280;71199;52.490;5.448;2024-01-30T03:29:02;102551.56;;;6.38;100.00
81802;BME280;71199;52.490;5.448;2024-01-30T03:31:28;102550.94;;;6.48;100.00
81802;BME280;71199;52.490;5.448;2024-01-30T03:33:53;102559.78;;;6.38;100.00
81802;BME280;71199;52.490;5.448;2024-01-30T03:36:19;102565.88;;;6.42;100.00
81802;BME280;71199;52.490;5.448;2024-01-30T03:38:45;102551.94;;;6.47;100.00
81802;BME280;71199;52.490;5.448;2024-01-30T03:41:10;102548.00;;;6.51;100.00
81802;BME280;71199;52.490;5.448;2024-01-30T03:43:36;102544.59;;;6.47;100.00
81802;BME280;71199;52.490;5.448;2024-01-30T03:46:02;102534.66;;;6.46;100.00
81802;BME280;71199;52.490;5.448;2024-01-30T03:48:28;102528.88;;;6.51;100.00
81802;BME280;71199;52.490;5.448;2024-01-30T03:50:54;102527.78;;;6.40;100.00
81802;BME280;71199;52.490;5.448;2024-01-30T03:53:19;102528.53;;;6.42;100.00
81802;BME280;71199;52.490;5.448;2024-01-30T03:55:45;102511.25;;;6.42;100.00
81802;BME280;71199;52.490;5.448;2024-01-30T03:58:10;102529.94;;;6.35;100.00
81802;BME280;71199;52.490;5.448;2024-01-30T04:00:36;102532.66;;;6.35;100.00
81802;BME280;71199;52.490;5.448;2024-01-30T04:03:01;102519.03;;;6.48;100.00
81802;BME280;71199;52.490;5.448;2024-01-30T04:05:27;102527.44;;;6.45;100.00
81802;BME280;71199;52.490;5.448;2024-01-30T04:07:52;102531.91;;;6.46;100.00
81802;BME280;71199;52.490;5.448;2024-01-30T04:10:17;102522.09;;;6.43;100.00
81802;BME280;71199;52.490;5.448;2024-01-30T04:12:43;102515.22;;;6.51;100.00
81802;BME280;71199;52.490;5.448;2024-01-30T04:15:08;102520.69;;;6.51;100.00
81802;BME280;71199;52.490;5.448;2024-01-30T04:17:34;102536.19;;;6.50;100.00
81802;BME280;71199;52.490;5.448;2024-01-30T04:19:59;102532.03;;;6.44;100.00
81802;BME280;71199;52.490;5.448;2024-01-30T04:22:24;102521.88;;;6.47;100.00
81802;BME280;71199;52.490;5.448;2024-01-30T04:24:50;102523.44;;;6.51;100.00
81802;BME280;71199;52.490;5.448;2024-01-30T04:27:15;102519.81;;;6.50;100.00
81802;BME280;71199;52.490;5.448;2024-01-30T04:29:40;102521.47;;;6.53;100.00
81802;BME280;71199;52.490;5.448;2024-01-30T04:32:06;102511.19;;;6.56;100.00
81802;BME280;71199;52.490;5.448;2024-01-30T04:34:31;102512.72;;;6.60;100.00
81802;BME280;71199;52.490;5.448;2024-01-30T04:36:57;102511.94;;;6.58;100.00
81802;BME280;71199;52.490;5.448;2024-01-30T04:39:22;102497.75;;;6.53;100.00
81802;BME280;71199;52.490;5.448;2024-01-30T04:41:47;102501.59;;;6.51;100.00
81802;BME280;71199;52.490;5.448;2024-01-30T04:44:13;102499.63;;;6.53;100.00
81802;BME280;71199;52.490;5.448;2024-01-30T04:46:39;102491.44;;;6.53;100.00
81802;BME280;71199;52.490;5.448;2024-01-30T04:49:04;102495.13;;;6.64;100.00
81802;BME280;71199;52.490;5.448;2024-01-30T04:51:29;102510.31;;;6.56;100.00
81802;BME280;71199;52.490;5.448;2024-01-30T04:53:55;102506.03;;;6.52;100.00
81802;BME280;71199;52.490;5.448;2024-01-30T04:56:20;102491.44;;;6.53;100.00
81802;BME280;71199;52.490;5.448;2024-01-30T04:58:45;102507.91;;;6.51;100.00
81802;BME280;71199;52.490;5.448;2024-01-30T05:01:15;102511.31;;;6.55;100.00
81802;BME280;71199;52.490;5.448;2024-01-30T05:03:41;102509.78;;;6.51;100.00
81802;BME280;71199;52.490;5.448;2024-01-30T05:06:06;102513.72;;;6.59;100.00
81802;BME280;71199;52.490;5.448;2024-01-30T05:08:31;102515.88;;;6.54;100.00
81802;BME280;71199;52.490;5.448;2024-01-30T05:11:00;102499.38;;;6.56;100.00
81802;BME280;71199;52.490;5.448;2024-01-30T05:13:25;102499.47;;;6.54;100.00
81802;BME280;71199;52.490;5.448;2024-01-30T05:15:51;102507.03;;;6.51;100.00
81802;BME280;71199;52.490;5.448;2024-01-30T05:18:16;102508.59;;;6.55;100.00
81802;BME280;71199;52.490;5.448;2024-01-30T05:20:41;102510.41;;;6.67;100.00
81802;BME280;71199;52.490;5.448;2024-01-30T05:23:07;102508.69;;;6.66;100.00
81802;BME280;71199;52.490;5.448;2024-01-30T05:25:32;102510.22;;;6.70;100.00
81802;BME280;71199;52.490;5.448;2024-01-30T05:27:57;102508.25;;;6.72;100.00
81802;BME280;71199;52.490;5.448;2024-01-30T05:30:23;102505.44;;;6.74;100.00
81802;BME280;71199;52.490;5.448;2024-01-30T05:32:48;102494.03;;;6.67;100.00
81802;BME280;71199;52.490;5.448;2024-01-30T05:35:14;102500.25;;;6.69;100.00
81802;BME280;71199;52.490;5.448;2024-01-30T05:37:40;102495.56;;;6.71;100.00
81802;BME280;71199;52.490;5.448;2024-01-30T05:40:06;102488.03;;;6.75;100.00
81802;BME280;71199;52.490;5.448;2024-01-30T05:42:31;102486.41;;;6.72;100.00
81802;BME280;71199;52.490;5.448;2024-01-30T05:44:57;102489.66;;;6.77;100.00
81802;BME280;71199;52.490;5.448;2024-01-30T05:47:22;102504.44;;;6.75;100.00
81802;BME280;71199;52.490;5.448;2024-01-30T05:49:47;102492.97;;;6.82;100.00
81802;BME280;71199;52.490;5.448;2024-01-30T05:52:13;102495.59;;;6.84;100.00
81802;BME280;71199;52.490;5.448;2024-01-30T05:54:40;102491.19;;;6.81;100.00
81802;BME280;71199;52.490;5.448;2024-01-30T05:57:05;102482.47;;;6.89;100.00
81802;BME280;71199;52.490;5.448;2024-01-30T05:59:31;102486.84;;;6.79;100.00
81802;BME280;71199;52.490;5.448;2024-01-30T06:01:57;102468.91;;;6.75;100.00
81802;BME280;71199;52.490;5.448;2024-01-30T06:04:23;102480.72;;;6.75;100.00
81802;BME280;71199;52.490;5.448;2024-01-30T06:06:48;102474.16;;;6.65;100.00
81802;BME280;71199;52.490;5.448;2024-01-30T06:09:13;102475.25;;;6.75;100.00
81802;BME280;71199;52.490;5.448;2024-01-30T06:11:39;102478.75;;;6.77;100.00
81802;BME280;71199;52.490;5.448;2024-01-30T06:14:05;102477.09;;;6.75;100.00
81802;BME280;71199;52.490;5.448;2024-01-30T06:16:30;102483.78;;;6.71;100.00
81802;BME280;71199;52.490;5.448;2024-01-30T06:18:56;102475.91;;;6.66;100.00
81802;BME280;71199;52.490;5.448;2024-01-30T06:21:22;102479.31;;;6.70;100.00
81802;BME280;71199;52.490;5.448;2024-01-30T06:23:47;102484.34;;;6.76;100.00
81802;BME280;71199;52.490;5.448;2024-01-30T06:26:12;102479.75;;;6.76;100.00
81802;BME280;71199;52.490;5.448;2024-01-30T06:28:38;102485.22;;;6.76;100.00
81802;BME280;71199;52.490;5.448;2024-01-30T06:31:03;102483.00;;;6.81;100.00
81802;BME280;71199;52.490;5.448;2024-01-30T06:33:28;102483.25;;;6.78;100.00
81802;BME280;71199;52.490;5.448;2024-01-30T06:35:54;102481.38;;;6.79;100.00
81802;BME280;71199;52.490;5.448;2024-01-30T06:38:19;102484.66;;;6.84;100.00
81802;BME280;71199;52.490;5.448;2024-01-30T06:40:45;102489.13;;;6.85;100.00
81802;BME280;71199;52.490;5.448;2024-01-30T06:43:10;102480.16;;;6.96;100.00
81802;BME280;71199;52.490;5.448;2024-01-30T06:45:36;102478.44;;;6.95;100.00
81802;BME280;71199;52.490;5.448;2024-01-30T06:48:02;102476.66;;;6.94;100.00
81802;BME280;71199;52.490;5.448;2024-01-30T06:50:28;102485.31;;;7.00;100.00
81802;BME280;71199;52.490;5.448;2024-01-30T06:52:53;102493.63;;;7.12;100.00
81802;BME280;71199;52.490;5.448;2024-01-30T06:55:19;102482.22;;;7.18;100.00
81802;BME280;71199;52.490;5.448;2024-01-30T06:57:44;102477.63;;;7.18;100.00
81802;BME280;71199;52.490;5.448;2024-01-30T07:00:10;102484.88;;;7.19;100.00
81802;BME280;71199;52.490;5.448;2024-01-30T07:02:35;102491.09;;;7.21;100.00
81802;BME280;71199;52.490;5.448;2024-01-30T07:05:01;102483.22;;;7.30;100.00
81802;BME280;71199;52.490;5.448;2024-01-30T07:07:27;102485.50;;;7.36;100.00
81802;BME280;71199;52.490;5.448;2024-01-30T07:09:53;102491.38;;;7.42;100.00
81802;BME280;71199;52.490;5.448;2024-01-30T07:12:24;102486.47;;;7.47;100.00
81802;BME280;71199;52.490;5.448;2024-01-30T07:14:51;102489.97;;;7.50;100.00
81802;BME280;71199;52.490;5.448;2024-01-30T07:17:17;102486.41;;;7.60;100.00
81802;BME280;71199;52.490;5.448;2024-01-30T07:19:42;102489.56;;;7.67;100.00
81802;BME280;71199;52.490;5.448;2024-01-30T07:22:08;102500.16;;;7.72;100.00
81802;BME280;71199;52.490;5.448;2024-01-30T07:24:34;102505.78;;;7.70;100.00
81802;BME280;71199;52.490;5.448;2024-01-30T07:26:59;102499.28;;;7.71;100.00
81802;BME280;71199;52.490;5.448;2024-01-30T07:29:25;102494.59;;;7.73;100.00
81802;BME280;71199;52.490;5.448;2024-01-30T07:31:50;102509.69;;;7.79;100.00
81802;BME280;71199;52.490;5.448;2024-01-30T07:34:15;102505.19;;;7.78;100.00
81802;BME280;71199;52.490;5.448;2024-01-30T07:36:41;102512.53;;;7.77;100.00
81802;BME280;71199;52.490;5.448;2024-01-30T07:39:06;102514.28;;;7.78;100.00
81802;BME280;71199;52.490;5.448;2024-01-30T07:41:32;102515.91;;;7.81;100.00
81802;BME280;71199;52.490;5.448;2024-01-30T07:43:57;102513.59;;;7.87;100.00
81802;BME280;71199;52.490;5.448;2024-01-30T07:46:23;102510.28;;;7.95;100.00
81802;BME280;71199;52.490;5.448;2024-01-30T07:48:48;102514.25;;;7.91;100.00
81802;BME280;71199;52.490;5.448;2024-01-30T07:51:13;102523.06;;;7.95;100.00
81802;BME280;71199;52.490;5.448;2024-01-30T07:53:39;102520.22;;;7.96;100.00
81802;BME280;71199;52.490;5.448;2024-01-30T07:56:07;102523.72;;;7.98;100.00
81802;BME280;71199;52.490;5.448;2024-01-30T07:58:32;102528.31;;;7.98;100.00
81802;BME280;71199;52.490;5.448;2024-01-30T08:00:57;102523.50;;;8.01;100.00
81802;BME280;71199;52.490;5.448;2024-01-30T08:03:23;102524.00;;;8.06;100.00
81802;BME280;71199;52.490;5.448;2024-01-30T08:05:49;102536.59;;;8.09;100.00
81802;BME280;71199;52.490;5.448;2024-01-30T08:08:15;102532.53;;;8.15;100.00
81802;BME280;71199;52.490;5.448;2024-01-30T08:10:40;102534.31;;;8.27;100.00
81802;BME280;71199;52.490;5.448;2024-01-30T08:13:05;102543.47;;;8.39;100.00
81802;BME280;71199;52.490;5.448;2024-01-30T08:15:31;102545.22;;;8.40;100.00
81802;BME280;71199;52.490;5.448;2024-01-30T08:17:56;102542.28;;;8.43;100.00
81802;BME280;71199;52.490;5.448;2024-01-30T08:20:24;102540.19;;;8.46;100.00
81802;BME280;71199;52.490;5.448;2024-01-30T08:22:50;102551.19;;;8.58;100.00
81802;BME280;71199;52.490;5.448;2024-01-30T08:25:15;102540.88;;;8.61;100.00
81802;BME280;71199;52.490;5.448;2024-01-30T08:27:40;102540.13;;;8.71;100.00
81802;BME280;71199;52.490;5.448;2024-01-30T08:30:06;102539.53;;;8.67;100.00
81802;BME280;71199;52.490;5.448;2024-01-30T08:32:32;102541.13;;;8.70;100.00
81802;BME280;71199;52.490;5.448;2024-01-30T08:34:58;102532.31;;;8.77;100.00
81802;BME280;71199;52.490;5.448;2024-01-30T08:37:23;102541.16;;;8.81;100.00
81802;BME280;71199;52.490;5.448;2024-01-30T08:39:48;102550.88;;;8.85;100.00
81802;BME280;71199;52.490;5.448;2024-01-30T08:42:14;102552.28;;;8.91;100.00
81802;BME280;71199;52.490;5.448;2024-01-30T08:44:39;102546.69;;;8.92;100.00
81802;BME280;71199;52.490;5.448;2024-01-30T08:47:05;102542.06;;;8.93;100.00
81802;BME280;71199;52.490;5.448;2024-01-30T08:49:31;102546.31;;;8.97;100.00
81802;BME280;71199;52.490;5.448;2024-01-30T08:51:56;102550.19;;;8.94;100.00
81802;BME280;71199;52.490;5.448;2024-01-30T08:54:23;102552.81;;;8.96;100.00
81802;BME280;71199;52.490;5.448;2024-01-30T08:56:49;102556.78;;;9.03;100.00
81802;BME280;71199;52.490;5.448;2024-01-30T08:59:14;102551.69;;;9.10;100.00
81802;BME280;71199;52.490;5.448;2024-01-30T09:01:40;102564.91;;;9.16;100.00
81802;BME280;71199;52.490;5.448;2024-01-30T09:04:05;102566.31;;;9.21;100.00
81802;BME280;71199;52.490;5.448;2024-01-30T09:06:31;102556.72;;;9.27;100.00
81802;BME280;71199;52.490;5.448;2024-01-30T09:08:56;102571.06;;;9.42;100.00
81802;BME280;71199;52.490;5.448;2024-01-30T09:11:23;102567.81;;;9.48;100.00
81802;BME280;71199;52.490;5.448;2024-01-30T09:13:48;102562.34;;;9.48;100.00
81802;BME280;71199;52.490;5.448;2024-01-30T09:16:14;102563.44;;;9.57;100.00
81802;BME280;71199;52.490;5.448;2024-01-30T09:18:41;102559.81;;;9.67;100.00
81802;BME280;71199;52.490;5.448;2024-01-30T09:21:06;102568.81;;;9.69;100.00
81802;BME280;71199;52.490;5.448;2024-01-30T09:23:32;102574.44;;;9.68;100.00
81802;BME280;71199;52.490;5.448;2024-01-30T09:25:57;102577.19;;;9.68;100.00
81802;BME280;71199;52.490;5.448;2024-01-30T09:28:23;102566.19;;;9.79;100.00
81802;BME280;71199;52.490;5.448;2024-01-30T09:30:48;102563.44;;;9.91;100.00
81802;BME280;71199;52.490;5.448;2024-01-30T09:33:13;102584.00;;;9.96;100.00
81802;BME280;71199;52.490;5.448;2024-01-30T09:35:39;102578.50;;;9.96;100.00
81802;BME280;71199;52.490;5.448;2024-01-30T09:38:04;102574.44;;;9.91;100.00
81802;BME280;71199;52.490;5.448;2024-01-30T09:40:30;102569.69;;;9.93;100.00
81802;BME280;71199;52.490;5.448;2024-01-30T09:42:55;102579.25;;;9.98;100.00
81802;BME280;71199;52.490;5.448;2024-01-30T09:45:25;102574.91;;;10.07;100.00
81802;BME280;71199;52.490;5.448;2024-01-30T09:47:50;102575.53;;;9.99;100.00
81802;BME280;71199;52.490;5.448;2024-01-30T09:50:16;102576.00;;;10.04;100.00
81802;BME280;71199;52.490;5.448;2024-01-30T09:52:48;102576.75;;;10.06;100.00
81802;BME280;71199;52.490;5.448;2024-01-30T09:55:15;102580.75;;;10.02;100.00
81802;BME280;71199;52.490;5.448;2024-01-30T09:57:41;102574.41;;;10.02;100.00
81802;BME280;71199;52.490;5.448;2024-01-30T10:00:07;102570.50;;;10.04;100.00
81802;BME280;71199;52.490;5.448;2024-01-30T10:02:37;102567.28;;;9.99;100.00
81802;BME280;71199;52.490;5.448;2024-01-30T10:05:02;102566.16;;;10.02;100.00
81802;BME280;71199;52.490;5.448;2024-01-30T10:07:28;102572.03;;;9.97;100.00
81802;BME280;71199;52.490;5.448;2024-01-30T10:09:54;102587.78;;;9.95;100.00
81802;BME280;71199;52.490;5.448;2024-01-30T10:12:23;102580.78;;;9.91;100.00
81802;BME280;71199;52.490;5.448;2024-01-30T10:14:48;102589.03;;;9.91;100.00
81802;BME280;71199;52.490;5.448;2024-01-30T10:17:14;102595.16;;;9.95;100.00
81802;BME280;71199;52.490;5.448;2024-01-30T10:19:40;102597.50;;;9.99;100.00
81802;BME280;71199;52.490;5.448;2024-01-30T10:22:05;102591.38;;;10.07;100.00
81802;BME280;71199;52.490;5.448;2024-01-30T10:24:32;102588.38;;;10.10;100.00
81802;BME280;71199;52.490;5.448;2024-01-30T10:26:58;102591.63;;;10.04;100.00
81802;BME280;71199;52.490;5.448;2024-01-30T10:29:24;102584.41;;;10.03;100.00
81802;BME280;71199;52.490;5.448;2024-01-30T10:32:03;102587.97;;;10.15;100.00
81802;BME280;71199;52.490;5.448;2024-01-30T10:34:29;102593.13;;;10.08;100.00
81802;BME280;71199;52.490;5.448;2024-01-30T10:37:06;102579.25;;;10.09;100.00
81802;BME280;71199;52.490;5.448;2024-01-30T10:39:38;102587.97;;;10.15;100.00
81802;BME280;71199;52.490;5.448;2024-01-30T10:42:04;102594.94;;;10.19;100.00
81802;BME280;71199;52.490;5.448;2024-01-30T10:44:36;102612.34;;;10.19;100.00
81802;BME280;71199;52.490;5.448;2024-01-30T10:47:06;102617.44;;;10.13;100.00
81802;BME280;71199;52.490;5.448;2024-01-30T10:49:33;102614.22;;;10.07;100.00
81802;BME280;71199;52.490;5.448;2024-01-30T10:51:59;102638.44;;;10.02;100.00
81802;BME280;71199;52.490;5.448;2024-01-30T10:54:26;102648.06;;;10.08;100.00
81802;BME280;71199;52.490;5.448;2024-01-30T10:56:52;102635.09;;;9.99;100.00
81802;BME280;71199;52.490;5.448;2024-01-30T10:59:18;102634.19;;;9.76;100.00
81802;BME280;71199;52.490;5.448;2024-01-30T11:01:44;102640.81;;;9.73;100.00
81802;BME280;71199;52.490;5.448;2024-01-30T11:04:10;102647.06;;;9.75;100.00
81802;BME280;71199;52.490;5.448;2024-01-30T11:06:41;102639.09;;;9.72;100.00
81802;BME280;71199;52.490;5.448;2024-01-30T11:09:10;102632.59;;;9.84;100.00
81802;BME280;71199;52.490;5.448;2024-01-30T11:11:57;102626.94;;;9.86;100.00
81802;BME280;71199;52.490;5.448;2024-01-30T11:14:27;102636.06;;;9.75;100.00
81802;BME280;71199;52.490;5.448;2024-01-30T11:16:57;102626.22;;;9.73;100.00
81802;BME280;71199;52.490;5.448;2024-01-30T11:19:24;102631.19;;;9.67;100.00
81802;BME280;71199;52.490;5.448;2024-01-30T11:21:50;102629.84;;;9.62;100.00
81802;BME280;71199;52.490;5.448;2024-01-30T11:24:21;102634.59;;;9.60;100.00
81802;BME280;71199;52.490;5.448;2024-01-30T11:26:49;102641.44;;;9.54;100.00
81802;BME280;71199;52.490;5.448;2024-01-30T11:29:17;102640.69;;;9.52;100.00
81802;BME280;71199;52.490;5.448;2024-01-30T11:31:52;102649.63;;;9.43;100.00
81802;BME280;71199;52.490;5.448;2024-01-30T11:34:18;102647.91;;;9.42;100.00
81802;BME280;71199;52.490;5.448;2024-01-30T11:36:45;102629.66;;;9.30;100.00
81802;BME280;71199;52.490;5.448;2024-01-30T11:39:16;102641.34;;;9.20;100.00
81802;BME280;71199;52.490;5.448;2024-01-30T11:41:43;102657.81;;;9.20;100.00
81802;BME280;71199;52.490;5.448;2024-01-30T11:44:10;102643.69;;;9.02;100.00
81802;BME280;71199;52.490;5.448;2024-01-30T11:46:36;102632.81;;;9.01;100.00
81802;BME280;71199;52.490;5.448;2024-01-30T11:49:01;102655.00;;;8.98;100.00
81802;BME280;71199;52.490;5.448;2024-01-30T11:51:27;102647.66;;;8.98;100.00
81802;BME280;71199;52.490;5.448;2024-01-30T11:53:53;102635.75;;;8.86;100.00
81802;BME280;71199;52.490;5.448;2024-01-30T11:56:18;102645.97;;;8.84;100.00
81802;BME280;71199;52.490;5.448;2024-01-30T11:58:44;102656.25;;;8.94;100.00
81802;BME280;71199;52.490;5.448;2024-01-30T12:01:10;102647.84;;;8.84;100.00
81802;BME280;71199;52.490;5.448;2024-01-30T12:03:36;102655.91;;;8.74;100.00
81802;BME280;71199;52.490;5.448;2024-01-30T12:06:02;102649.00;;;8.68;100.00
81802;BME280;71199;52.490;5.448;2024-01-30T12:08:28;102654.16;;;8.73;100.00
81802;BME280;71199;52.490;5.448;2024-01-30T12:10:57;102663.59;;;8.69;100.00
81802;BME280;71199;52.490;5.448;2024-01-30T12:13:24;102658.28;;;8.55;100.00
81802;BME280;71199;52.490;5.448;2024-01-30T12:15:50;102659.28;;;8.54;100.00
81802;BME280;71199;52.490;5.448;2024-01-30T12:18:18;102661.44;;;8.61;100.00
81802;BME280;71199;52.490;5.448;2024-01-30T12:20:44;102660.78;;;8.58;100.00
81802;BME280;71199;52.490;5.448;2024-01-30T12:23:11;102671.00;;;8.56;100.00
81802;BME280;71199;52.490;5.448;2024-01-30T12:25:38;102679.75;;;8.61;100.00
81802;BME280;71199;52.490;5.448;2024-01-30T12:28:04;102673.06;;;8.65;100.00
81802;BME280;71199;52.490;5.448;2024-01-30T12:30:29;102660.31;;;8.64;100.00
81802;BME280;71199;52.490;5.448;2024-01-30T12:32:55;102658.69;;;8.61;100.00
81802;BME280;71199;52.490;5.448;2024-01-30T12:35:20;102659.50;;;8.75;100.00
81802;BME280;71199;52.490;5.448;2024-01-30T12:37:48;102670.81;;;8.70;100.00
81802;BME280;71199;52.490;5.448;2024-01-30T12:40:14;102665.13;;;8.73;100.00
81802;BME280;71199;52.490;5.448;2024-01-30T12:42:43;102665.06;;;8.86;100.00
81802;BME280;71199;52.490;5.448;2024-01-30T12:45:14;102663.13;;;8.75;100.00